createdAt,value
2022-08-21T00:00:12.091Z,90.82
2022-08-21T00:02:30.442Z,92.77
2022-08-21T00:03:39.619Z,90.82
2022-08-21T00:04:48.786Z,89.59
2022-08-21T00:05:57.959Z,88.13
2022-08-21T00:07:07.130Z,89.84
2022-08-21T00:08:16.294Z,89.11
2022-08-21T00:09:25.488Z,87.64
2022-08-21T00:10:34.646Z,94.23
2022-08-21T00:11:43.822Z,90.33
2022-08-21T00:12:52.994Z,89.35
2022-08-21T00:14:01.179Z,87.4
2022-08-21T00:15:10.350Z,87.89
2022-08-21T00:16:19.527Z,86.91
2022-08-21T00:17:28.691Z,86.18
2022-08-21T00:18:37.871Z,87.64
2022-08-21T00:19:47.040Z,87.89
2022-08-21T00:20:56.236Z,86.42
2022-08-21T00:22:05.396Z,86.91
2022-08-21T00:23:14.561Z,86.91
2022-08-21T00:24:23.749Z,86.91
2022-08-21T00:25:32.922Z,87.4
2022-08-21T00:26:42.080Z,87.89
2022-08-21T00:27:51.251Z,85.93
2022-08-21T00:28:59.430Z,88.37
2022-08-21T00:30:08.620Z,88.13
2022-08-21T00:31:17.791Z,91.06
2022-08-21T00:32:26.954Z,91.3
2022-08-21T00:33:36.132Z,92.04
2022-08-21T00:34:45.302Z,92.52
2022-08-21T00:35:54.467Z,92.28
2022-08-21T00:37:03.677Z,91.55
2022-08-21T00:38:12.813Z,93.75
2022-08-21T00:39:21.982Z,95.94
2022-08-21T00:40:30.198Z,95.7
2022-08-21T00:41:39.352Z,95.45
2022-08-21T00:42:48.554Z,98.38
2022-08-21T00:43:57.698Z,97.41
2022-08-21T00:45:06.885Z,96.67
2022-08-21T00:47:25.224Z,96.92
2022-08-21T00:48:34.410Z,98.87
2022-08-21T00:49:43.554Z,96.92
2022-08-21T00:52:01.915Z,99.12
2022-08-21T00:53:11.110Z,97.41
2022-08-21T00:54:20.258Z,99.12
2022-08-21T00:55:28.444Z,98.63
2022-08-21T00:56:37.613Z,100.09
2022-08-21T00:57:46.816Z,97.16
2022-08-21T00:58:55.957Z,96.19
2022-08-21T01:00:05.139Z,99.36
2022-08-21T01:01:14.312Z,99.36
2022-08-21T01:02:23.480Z,97.9
2022-08-21T01:03:32.645Z,96.92
2022-08-21T01:04:41.823Z,100.34
2022-08-21T01:05:51.003Z,99.36
2022-08-21T01:07:00.166Z,99.85
2022-08-21T01:08:09.340Z,98.63
2022-08-21T01:09:18.506Z,99.12
2022-08-21T01:10:26.707Z,97.41
2022-08-21T01:11:35.870Z,98.63
2022-08-21T01:12:45.047Z,98.14
2022-08-21T01:13:54.218Z,98.63
2022-08-21T01:15:03.401Z,96.67
2022-08-21T01:16:12.578Z,96.19
2022-08-21T01:17:21.734Z,97.41
2022-08-21T01:18:30.933Z,97.9
2022-08-21T01:19:40.075Z,96.92
2022-08-21T01:20:49.246Z,95.21
2022-08-21T01:21:58.443Z,95.21
2022-08-21T01:23:07.597Z,95.94
2022-08-21T01:24:16.781Z,95.45
2022-08-21T01:25:24.952Z,93.75
2022-08-21T01:26:34.135Z,93.99
2022-08-21T01:27:43.308Z,93.01
2022-08-21T01:28:52.477Z,92.77
2022-08-21T01:30:01.640Z,93.01
2022-08-21T01:31:10.816Z,91.3
2022-08-21T01:32:19.990Z,91.06
2022-08-21T01:33:29.169Z,91.3
2022-08-21T01:34:38.332Z,89.11
2022-08-21T01:35:47.506Z,88.86
2022-08-21T01:36:56.686Z,87.89
2022-08-21T01:38:05.868Z,87.15
2022-08-21T01:39:15.021Z,85.93
2022-08-21T01:40:23.226Z,87.4
2022-08-21T01:41:32.392Z,86.91
2022-08-21T01:42:41.564Z,86.66
2022-08-21T01:43:50.737Z,85.93
2022-08-21T01:44:59.903Z,86.91
2022-08-21T01:46:09.076Z,86.18
2022-08-21T01:47:18.266Z,87.4
2022-08-21T01:48:27.427Z,86.18
2022-08-21T01:49:36.592Z,84.96
2022-08-21T01:50:45.769Z,85.44
2022-08-21T01:51:54.952Z,84.71
2022-08-21T01:53:04.128Z,84.47
2022-08-21T01:54:13.284Z,84.71
2022-08-21T01:55:21.477Z,86.42
2022-08-21T01:56:30.649Z,86.18
2022-08-21T01:57:39.831Z,84.71
2022-08-21T01:58:48.987Z,84.71
2022-08-21T01:59:58.161Z,83.98
2022-08-21T02:01:07.336Z,86.18
2022-08-21T02:02:16.509Z,83.74
2022-08-21T02:03:25.691Z,85.44
2022-08-21T02:04:34.851Z,85.44
2022-08-21T02:05:44.025Z,85.44
2022-08-21T02:06:53.201Z,84.71
2022-08-21T02:08:02.378Z,85.44
2022-08-21T02:09:11.540Z,84.71
2022-08-21T02:10:19.734Z,84.71
2022-08-21T02:11:28.903Z,84.71
2022-08-21T02:12:38.071Z,84.71
2022-08-21T02:13:47.242Z,83.74
2022-08-21T02:14:56.416Z,85.2
2022-08-21T02:16:05.597Z,84.47
2022-08-21T02:17:14.774Z,83.74
2022-08-21T02:18:23.942Z,85.2
2022-08-21T02:19:33.110Z,85.69
2022-08-21T02:20:42.285Z,84.71
2022-08-21T02:21:51.450Z,86.18
2022-08-21T02:23:00.631Z,86.18
2022-08-21T02:24:09.792Z,86.18
2022-08-21T02:25:17.999Z,85.44
2022-08-21T02:26:26.189Z,84.96
2022-08-21T02:27:34.385Z,85.69
2022-08-21T02:28:42.568Z,86.18
2022-08-21T02:29:51.738Z,86.66
2022-08-21T02:31:00.913Z,88.86
2022-08-21T02:32:10.078Z,86.91
2022-08-21T02:34:28.431Z,86.91
2022-08-21T02:35:37.600Z,89.59
2022-08-21T02:36:46.782Z,87.89
2022-08-21T02:37:55.944Z,89.35
2022-08-21T02:39:05.127Z,88.86
2022-08-21T02:40:14.283Z,89.35
2022-08-21T02:41:23.465Z,91.06
2022-08-21T02:42:32.639Z,91.55
2022-08-21T02:43:40.816Z,92.77
2022-08-21T02:44:50.011Z,93.01
2022-08-21T02:45:59.176Z,95.7
2022-08-21T02:47:08.354Z,94.48
2022-08-21T02:48:17.521Z,95.45
2022-08-21T02:49:26.688Z,96.43
2022-08-21T02:50:35.862Z,95.21
2022-08-21T02:51:45.035Z,96.19
2022-08-21T02:52:53.230Z,97.41
2022-08-21T02:54:01.418Z,98.63
2022-08-21T02:55:10.595Z,95.94
2022-08-21T02:56:19.764Z,98.63
2022-08-21T02:57:28.927Z,99.12
2022-08-21T02:58:38.104Z,97.16
2022-08-21T02:59:47.276Z,98.63
2022-08-21T03:00:56.448Z,96.43
2022-08-21T03:02:05.616Z,97.9
2022-08-21T03:03:14.800Z,96.67
2022-08-21T03:04:23.964Z,96.92
2022-08-21T03:05:33.141Z,96.67
2022-08-21T03:06:42.326Z,97.16
2022-08-21T03:07:51.482Z,97.16
2022-08-21T03:08:59.683Z,95.7
2022-08-21T03:10:08.846Z,95.21
2022-08-21T03:11:18.014Z,92.52
2022-08-21T03:12:27.199Z,94.48
2022-08-21T03:13:36.384Z,93.75
2022-08-21T03:14:45.531Z,92.52
2022-08-21T03:15:54.712Z,92.52
2022-08-21T03:17:03.879Z,91.79
2022-08-21T03:18:13.057Z,92.28
2022-08-21T03:19:22.224Z,93.26
2022-08-21T03:20:31.403Z,91.06
2022-08-21T03:21:40.565Z,91.79
2022-08-21T03:22:49.755Z,88.13
2022-08-21T03:23:57.927Z,88.86
2022-08-21T03:25:07.103Z,90.08
2022-08-21T03:26:16.274Z,88.86
2022-08-21T03:27:25.448Z,87.4
2022-08-21T03:28:34.628Z,87.64
2022-08-21T03:29:43.799Z,88.37
2022-08-21T03:30:52.969Z,89.11
2022-08-21T03:32:02.147Z,88.37
2022-08-21T03:33:11.321Z,86.42
2022-08-21T03:34:20.481Z,86.18
2022-08-21T03:35:29.651Z,85.2
2022-08-21T03:36:38.835Z,83.74
2022-08-21T03:37:47.997Z,84.71
2022-08-21T03:38:56.177Z,89.59
2022-08-21T03:40:05.361Z,84.71
2022-08-21T03:41:14.542Z,83.98
2022-08-21T03:42:23.721Z,85.93
2022-08-21T03:43:32.882Z,84.71
2022-08-21T03:44:42.042Z,84.71
2022-08-21T03:45:51.213Z,86.42
2022-08-21T03:47:00.395Z,84.47
2022-08-21T03:48:09.564Z,84.47
2022-08-21T03:49:18.737Z,84.22
2022-08-21T03:50:27.899Z,84.71
2022-08-21T03:51:37.091Z,85.2
2022-08-21T03:52:46.245Z,86.18
2022-08-21T03:53:54.448Z,84.47
2022-08-21T03:55:03.617Z,84.47
2022-08-21T03:56:12.793Z,84.71
2022-08-21T03:57:21.964Z,84.71
2022-08-21T03:58:31.143Z,83.74
2022-08-21T03:59:40.300Z,84.71
2022-08-21T04:00:49.477Z,83.98
2022-08-21T04:01:58.666Z,84.71
2022-08-21T04:03:07.813Z,85.2
2022-08-21T04:04:16.987Z,86.18
2022-08-21T04:05:26.176Z,86.91
2022-08-21T04:06:35.335Z,87.64
2022-08-21T04:07:44.515Z,87.64
2022-08-21T04:08:52.707Z,86.91
2022-08-21T04:10:01.866Z,85.44
2022-08-21T04:11:11.057Z,85.44
2022-08-21T04:12:20.224Z,84.47
2022-08-21T04:13:29.384Z,85.44
2022-08-21T04:14:38.558Z,90.08
2022-08-21T04:15:47.727Z,84.47
2022-08-21T04:16:56.897Z,85.2
2022-08-21T04:18:06.076Z,85.44
2022-08-21T04:19:15.251Z,90.08
2022-08-21T04:20:24.426Z,84.47
2022-08-21T04:21:33.591Z,84.71
2022-08-21T04:22:42.764Z,85.44
2022-08-21T04:23:50.959Z,84.71
2022-08-21T04:25:00.133Z,84.47
2022-08-21T04:26:09.300Z,85.2
2022-08-21T04:27:18.470Z,85.44
2022-08-21T04:28:27.641Z,84.47
2022-08-21T04:29:36.809Z,85.93
2022-08-21T04:30:45.987Z,86.66
2022-08-21T04:31:54.176Z,86.42
2022-08-21T04:33:03.355Z,87.15
2022-08-21T04:34:12.536Z,85.69
2022-08-21T04:35:21.691Z,86.91
2022-08-21T04:36:30.875Z,85.2
2022-08-21T04:37:40.040Z,88.86
2022-08-21T04:38:49.213Z,88.86
2022-08-21T04:39:58.390Z,89.59
2022-08-21T04:41:07.555Z,89.11
2022-08-21T04:42:16.725Z,88.62
2022-08-21T04:43:25.907Z,89.35
2022-08-21T04:44:35.070Z,88.13
2022-08-21T04:45:44.249Z,92.52
2022-08-21T04:46:52.456Z,90.08
2022-08-21T04:48:01.604Z,91.06
2022-08-21T04:49:10.792Z,91.79
2022-08-21T04:50:19.953Z,91.55
2022-08-21T04:51:29.136Z,90.82
2022-08-21T04:52:38.323Z,91.79
2022-08-21T04:53:47.475Z,91.55
2022-08-21T04:54:56.639Z,89.84
2022-08-21T04:56:05.814Z,90.57
2022-08-21T04:57:14.980Z,93.26
2022-08-21T04:58:24.161Z,92.04
2022-08-21T04:59:33.331Z,93.26
2022-08-21T05:00:42.501Z,93.75
2022-08-21T05:01:50.701Z,93.01
2022-08-21T05:02:59.872Z,92.04
2022-08-21T05:04:09.038Z,91.79
2022-08-21T05:05:18.217Z,91.55
2022-08-21T05:06:27.390Z,92.28
2022-08-21T05:07:36.549Z,91.79
2022-08-21T05:08:45.717Z,89.84
2022-08-21T05:09:54.905Z,90.57
2022-08-21T05:11:04.072Z,90.82
2022-08-21T05:12:13.246Z,91.3
2022-08-21T05:13:22.416Z,92.28
2022-08-21T05:14:31.591Z,90.57
2022-08-21T05:15:40.774Z,89.84
2022-08-21T05:16:49.948Z,90.33
2022-08-21T05:17:58.128Z,87.64
2022-08-21T05:19:07.304Z,86.42
2022-08-21T05:20:16.485Z,88.37
2022-08-21T05:21:25.640Z,90.08
2022-08-21T05:22:34.811Z,87.64
2022-08-21T05:23:43.988Z,88.13
2022-08-21T05:24:53.157Z,86.91
2022-08-21T05:26:02.322Z,88.13
2022-08-21T05:27:11.534Z,87.64
2022-08-21T05:28:20.682Z,86.91
2022-08-21T05:29:29.854Z,86.18
2022-08-21T05:30:39.028Z,86.18
2022-08-21T05:31:48.196Z,86.42
2022-08-21T05:32:56.380Z,85.69
2022-08-21T05:34:05.549Z,85.2
2022-08-21T05:35:14.739Z,85.93
2022-08-21T05:36:23.931Z,86.18
2022-08-21T05:37:33.076Z,84.71
2022-08-21T05:38:42.248Z,85.44
2022-08-21T05:39:51.417Z,83.98
2022-08-21T05:41:00.592Z,83.74
2022-08-21T05:42:09.766Z,84.71
2022-08-21T05:43:18.935Z,83.49
2022-08-21T05:44:28.105Z,83.49
2022-08-21T05:45:37.320Z,86.91
2022-08-21T05:46:46.454Z,83.49
2022-08-21T05:47:54.638Z,84.47
2022-08-21T05:49:03.818Z,84.47
2022-08-21T05:50:12.986Z,83.74
2022-08-21T05:51:22.160Z,84.22
2022-08-21T05:52:31.330Z,81.54
2022-08-21T05:53:40.509Z,82.27
2022-08-21T05:54:49.690Z,86.42
2022-08-21T05:55:58.854Z,83.74
2022-08-21T05:57:08.014Z,81.29
2022-08-21T05:58:17.190Z,81.78
2022-08-21T05:59:26.366Z,81.29
2022-08-21T06:00:35.546Z,80.07
2022-08-21T06:01:44.715Z,82.03
2022-08-21T06:02:52.905Z,81.29
2022-08-21T06:04:02.063Z,82.03
2022-08-21T06:05:11.253Z,81.54
2022-08-21T06:06:20.430Z,80.81
2022-08-21T06:07:29.609Z,81.54
2022-08-21T06:08:38.765Z,80.07
2022-08-21T06:09:47.942Z,81.29
2022-08-21T06:10:57.113Z,81.78
2022-08-21T06:12:06.282Z,82.03
2022-08-21T06:13:15.449Z,81.78
2022-08-21T06:14:24.621Z,81.05
2022-08-21T06:15:33.801Z,82.51
2022-08-21T06:16:42.976Z,81.29
2022-08-21T06:17:51.151Z,83.74
2022-08-21T06:19:00.331Z,83.49
2022-08-21T06:20:09.512Z,83.98
2022-08-21T06:21:18.667Z,86.18
2022-08-21T06:22:27.840Z,85.69
2022-08-21T06:23:37.020Z,87.15
2022-08-21T06:24:46.193Z,86.66
2022-08-21T06:25:55.361Z,88.37
2022-08-21T06:27:04.543Z,87.4
2022-08-21T06:28:13.708Z,85.2
2022-08-21T06:29:22.883Z,85.44
2022-08-21T06:30:32.052Z,87.4
2022-08-21T06:31:41.213Z,87.4
2022-08-21T06:32:50.402Z,90.08
2022-08-21T06:33:58.588Z,88.62
2022-08-21T06:35:07.765Z,87.64
2022-08-21T06:36:16.935Z,90.08
2022-08-21T06:37:26.107Z,90.08
2022-08-21T06:38:35.274Z,91.3
2022-08-21T06:39:44.450Z,89.84
2022-08-21T06:40:53.617Z,91.3
2022-08-21T06:42:02.783Z,92.52
2022-08-21T06:43:11.974Z,91.55
2022-08-21T06:44:21.134Z,89.35
2022-08-21T06:45:30.344Z,91.06
2022-08-21T06:46:39.489Z,91.79
2022-08-21T06:47:48.656Z,91.79
2022-08-21T06:48:56.840Z,95.94
2022-08-21T06:50:06.021Z,91.3
2022-08-21T06:51:15.199Z,91.79
2022-08-21T06:52:24.363Z,93.01
2022-08-21T06:53:33.535Z,93.75
2022-08-21T06:54:42.711Z,92.52
2022-08-21T06:55:51.873Z,96.92
2022-08-21T06:57:01.047Z,95.21
2022-08-21T06:58:10.227Z,93.99
2022-08-21T06:59:19.427Z,94.23
2022-08-21T07:00:28.576Z,91.55
2022-08-21T07:01:37.738Z,92.28
2022-08-21T07:02:46.911Z,92.77
2022-08-21T07:03:55.118Z,94.97
2022-08-21T07:05:04.278Z,92.28
2022-08-21T07:06:13.458Z,96.67
2022-08-21T07:07:22.629Z,92.77
2022-08-21T07:08:31.802Z,93.99
2022-08-21T07:09:40.972Z,95.7
2022-08-21T07:10:50.134Z,95.7
2022-08-21T07:11:59.320Z,97.16
2022-08-21T07:14:17.656Z,97.41
2022-08-21T07:15:26.830Z,96.92
2022-08-21T07:16:36.005Z,96.67
2022-08-21T07:17:45.177Z,98.38
2022-08-21T07:18:53.358Z,98.38
2022-08-21T07:20:02.526Z,98.14
2022-08-21T07:21:11.711Z,98.87
2022-08-21T07:22:20.887Z,97.65
2022-08-21T07:23:30.061Z,97.41
2022-08-21T07:24:39.235Z,97.41
2022-08-21T07:25:48.398Z,97.41
2022-08-21T07:26:57.572Z,96.67
2022-08-21T07:28:06.749Z,96.67
2022-08-21T07:29:15.918Z,97.41
2022-08-21T07:30:25.087Z,95.94
2022-08-21T07:31:34.268Z,97.16
2022-08-21T07:32:43.436Z,97.65
2022-08-21T07:33:51.618Z,97.41
2022-08-21T07:35:00.804Z,96.19
2022-08-21T07:36:09.964Z,96.67
2022-08-21T07:37:19.136Z,95.21
2022-08-21T07:38:28.309Z,95.94
2022-08-21T07:39:37.494Z,96.92
2022-08-21T07:40:46.652Z,97.65
2022-08-21T07:41:55.824Z,98.14
2022-08-21T07:43:05.010Z,97.41
2022-08-21T07:45:23.340Z,97.41
2022-08-21T07:46:32.521Z,97.41
2022-08-21T07:47:41.677Z,97.41
2022-08-21T07:48:49.873Z,95.94
2022-08-21T07:49:59.056Z,94.72
2022-08-21T07:51:08.228Z,95.94
2022-08-21T07:52:17.394Z,97.16
2022-08-21T07:53:26.569Z,95.7
2022-08-21T07:54:35.740Z,94.97
2022-08-21T07:55:44.909Z,98.14
2022-08-21T07:56:54.084Z,97.65
2022-08-21T07:58:03.251Z,94.97
2022-08-21T07:59:12.424Z,97.9
2022-08-21T08:00:21.591Z,97.65
2022-08-21T08:01:30.762Z,95.94
2022-08-21T08:02:39.948Z,95.45
2022-08-21T08:03:48.129Z,97.41
2022-08-21T08:04:57.295Z,97.16
2022-08-21T08:06:06.469Z,95.94
2022-08-21T08:07:15.645Z,95.21
2022-08-21T08:08:24.808Z,96.19
2022-08-21T08:09:33.988Z,96.67
2022-08-21T08:10:43.158Z,96.43
2022-08-21T08:11:52.334Z,98.38
2022-08-21T08:13:01.514Z,98.87
2022-08-21T08:14:10.688Z,95.45
2022-08-21T08:15:19.855Z,98.87
2022-08-21T08:16:29.030Z,97.41
2022-08-21T08:17:38.186Z,96.19
2022-08-21T08:18:46.394Z,95.7
2022-08-21T08:19:55.553Z,97.16
2022-08-21T08:21:04.721Z,98.14
2022-08-21T08:22:13.900Z,96.19
2022-08-21T08:23:22.090Z,94.97
2022-08-21T08:24:31.298Z,102.53
2022-08-21T08:25:40.442Z,96.92
2022-08-21T08:26:49.620Z,97.16
2022-08-21T08:27:58.788Z,97.41
2022-08-21T08:29:07.979Z,94.72
2022-08-21T08:30:16.163Z,94.72
2022-08-21T08:31:24.346Z,96.19
2022-08-21T08:32:33.516Z,96.19
2022-08-21T08:33:42.688Z,97.41
2022-08-21T08:34:51.855Z,95.94
2022-08-21T08:36:01.039Z,95.7
2022-08-21T08:37:10.212Z,99.12
2022-08-21T08:38:19.385Z,96.19
2022-08-21T08:39:27.567Z,98.38
2022-08-21T08:40:36.734Z,97.9
2022-08-21T08:41:44.956Z,95.21
2022-08-21T08:42:54.095Z,97.41
2022-08-21T08:44:03.283Z,96.92
2022-08-21T08:45:12.473Z,99.12
2022-08-21T08:46:21.623Z,96.19
2022-08-21T08:47:30.786Z,98.38
2022-08-21T08:48:39.964Z,95.45
2022-08-21T08:49:49.140Z,94.23
2022-08-21T08:50:58.314Z,96.43
2022-08-21T08:52:07.488Z,95.94
2022-08-21T08:53:16.657Z,94.48
2022-08-21T08:54:25.830Z,96.92
2022-08-21T08:55:35.003Z,96.92
2022-08-21T08:56:43.197Z,97.65
2022-08-21T08:57:52.365Z,97.41
2022-08-21T08:59:01.530Z,96.19
2022-08-21T09:00:10.709Z,99.6
2022-08-21T09:01:19.888Z,97.16
2022-08-21T09:02:29.060Z,98.63
2022-08-21T09:03:38.230Z,95.94
2022-08-21T09:04:47.407Z,97.41
2022-08-21T09:05:56.572Z,95.94
2022-08-21T09:07:05.744Z,98.38
2022-08-21T09:08:14.922Z,96.92
2022-08-21T09:09:24.084Z,97.41
2022-08-21T09:10:33.258Z,95.7
2022-08-21T09:11:41.448Z,96.92
2022-08-21T09:12:50.634Z,96.43
2022-08-21T09:13:59.796Z,98.63
2022-08-21T09:15:08.973Z,97.65
2022-08-21T09:16:18.130Z,97.41
2022-08-21T09:17:27.311Z,97.65
2022-08-21T09:18:36.486Z,99.12
2022-08-21T09:19:45.658Z,97.41
2022-08-21T09:20:54.831Z,97.41
2022-08-21T09:22:03.022Z,97.41
2022-08-21T09:23:11.226Z,97.41
2022-08-21T09:24:19.410Z,98.63
2022-08-21T09:25:27.588Z,98.87
2022-08-21T09:26:36.763Z,99.36
2022-08-21T09:27:45.951Z,95.7
2022-08-21T09:28:55.096Z,99.36
2022-08-21T09:30:04.289Z,99.85
2022-08-21T09:31:13.450Z,101.07
2022-08-21T09:32:22.629Z,95.7
2022-08-21T09:33:31.800Z,98.87
2022-08-21T09:34:40.968Z,98.63
2022-08-21T09:35:50.177Z,97.41
2022-08-21T09:36:59.324Z,99.36
2022-08-21T09:38:08.496Z,98.87
2022-08-21T09:39:17.666Z,98.14
2022-08-21T09:40:25.855Z,99.6
2022-08-21T09:41:35.021Z,99.36
2022-08-21T09:42:44.198Z,98.14
2022-08-21T09:43:53.374Z,103.02
2022-08-21T09:45:02.541Z,102.53
2022-08-21T09:46:11.706Z,104.98
2022-08-21T09:47:20.880Z,101.31
2022-08-21T09:48:30.049Z,99.36
2022-08-21T09:49:39.247Z,100.58
2022-08-21T09:50:48.400Z,101.07
2022-08-21T09:51:57.574Z,101.07
2022-08-21T09:53:06.753Z,101.07
2022-08-21T09:54:15.915Z,101.07
2022-08-21T09:55:24.108Z,99.36
2022-08-21T09:56:33.279Z,100.09
2022-08-21T09:57:42.456Z,100.83
2022-08-21T09:58:51.625Z,99.6
2022-08-21T10:00:00.800Z,101.31
2022-08-21T10:01:09.982Z,102.05
2022-08-21T10:02:19.142Z,101.31
2022-08-21T10:03:28.312Z,101.31
2022-08-21T10:04:37.494Z,101.31
2022-08-21T10:05:46.644Z,99.36
2022-08-21T10:06:55.847Z,99.6
2022-08-21T10:09:14.177Z,99.85
2022-08-21T10:10:22.369Z,98.87
2022-08-21T10:11:31.547Z,102.53
2022-08-21T10:12:40.714Z,103.51
2022-08-21T10:13:49.883Z,102.05
2022-08-21T10:14:59.065Z,102.29
2022-08-21T10:16:08.226Z,100.09
2022-08-21T10:17:17.397Z,101.07
2022-08-21T10:18:26.571Z,99.85
2022-08-21T10:19:35.757Z,101.8
2022-08-21T10:20:44.917Z,101.8
2022-08-21T10:21:54.089Z,99.36
2022-08-21T10:23:03.270Z,101.07
2022-08-21T10:24:12.444Z,98.63
2022-08-21T10:25:20.630Z,99.85
2022-08-21T10:26:29.785Z,101.07
2022-08-21T10:27:38.962Z,100.83
2022-08-21T10:28:48.143Z,97.65
2022-08-21T10:29:57.317Z,100.09
2022-08-21T10:31:06.492Z,101.07
2022-08-21T10:32:15.670Z,99.6
2022-08-21T10:33:24.833Z,100.58
2022-08-21T10:34:34.023Z,101.07
2022-08-21T10:35:43.186Z,100.09
2022-08-21T10:36:52.357Z,97.41
2022-08-21T10:38:01.547Z,99.6
2022-08-21T10:39:10.697Z,103.27
2022-08-21T10:40:18.876Z,99.6
2022-08-21T10:41:28.064Z,101.56
2022-08-21T10:42:37.233Z,99.6
2022-08-21T10:43:46.406Z,98.87
2022-08-21T10:44:55.576Z,101.31
2022-08-21T10:46:04.747Z,100.09
2022-08-21T10:47:13.933Z,99.6
2022-08-21T10:48:23.097Z,102.53
2022-08-21T10:49:32.264Z,103.27
2022-08-21T10:50:41.443Z,102.78
2022-08-21T10:51:50.624Z,99.6
2022-08-21T10:52:59.787Z,104.49
2022-08-21T10:54:08.965Z,102.53
2022-08-21T10:55:17.145Z,100.34
2022-08-21T10:56:26.338Z,102.53
2022-08-21T10:57:35.499Z,102.53
2022-08-21T10:58:44.669Z,101.56
2022-08-21T10:59:53.831Z,101.07
2022-08-21T11:01:03.002Z,102.29
2022-08-21T11:02:12.184Z,102.53
2022-08-21T11:03:21.348Z,103.02
2022-08-21T11:04:30.523Z,99.85
2022-08-21T11:05:38.715Z,97.16
2022-08-21T11:06:46.904Z,99.6
2022-08-21T11:07:56.083Z,99.85
2022-08-21T11:09:05.255Z,101.8
2022-08-21T11:10:14.417Z,98.63
2022-08-21T11:11:23.595Z,99.85
2022-08-21T11:12:32.768Z,99.6
2022-08-21T11:13:41.969Z,98.63
2022-08-21T11:14:51.100Z,100.09
2022-08-21T11:16:00.282Z,100.83
2022-08-21T11:17:09.461Z,98.14
2022-08-21T11:18:17.662Z,98.14
2022-08-21T11:19:26.829Z,97.9
2022-08-21T11:20:35.008Z,100.58
2022-08-21T11:21:44.180Z,99.36
2022-08-21T11:22:53.364Z,99.6
2022-08-21T11:24:02.539Z,98.87
2022-08-21T11:25:11.694Z,98.38
2022-08-21T11:26:20.887Z,99.6
2022-08-21T11:27:30.064Z,102.78
2022-08-21T11:28:39.217Z,99.36
2022-08-21T11:29:48.397Z,100.34
2022-08-21T11:30:57.587Z,100.34
2022-08-21T11:32:06.744Z,99.36
2022-08-21T11:33:15.910Z,100.09
2022-08-21T11:34:25.097Z,99.12
2022-08-21T11:35:33.275Z,101.31
2022-08-21T11:36:42.444Z,98.63
2022-08-21T11:37:51.618Z,98.38
2022-08-21T11:39:00.803Z,98.87
2022-08-21T11:40:09.961Z,95.94
2022-08-21T11:41:19.137Z,97.41
2022-08-21T11:42:27.333Z,96.43
2022-08-21T11:43:35.519Z,95.7
2022-08-21T11:44:44.690Z,96.43
2022-08-21T11:47:03.036Z,97.65
2022-08-21T11:48:12.213Z,93.75
2022-08-21T11:49:21.375Z,95.45
2022-08-21T11:50:29.579Z,94.97
2022-08-21T11:51:37.772Z,96.43
2022-08-21T11:52:46.928Z,94.48
2022-08-21T11:53:56.113Z,94.23
2022-08-21T11:55:05.289Z,92.77
2022-08-21T11:56:14.455Z,93.75
2022-08-21T11:57:23.627Z,93.5
2022-08-21T11:58:32.813Z,93.01
2022-08-21T11:59:41.976Z,90.57
2022-08-21T12:00:51.137Z,87.64
2022-08-21T12:02:00.319Z,85.93
2022-08-21T12:03:09.491Z,96.19
2022-08-21T12:04:18.666Z,82.76
2022-08-21T12:05:27.845Z,81.29
2022-08-21T12:06:36.014Z,82.76
2022-08-21T12:07:45.196Z,82.51
2022-08-21T12:08:54.381Z,84.71
2022-08-21T12:10:03.556Z,86.18
2022-08-21T12:11:12.708Z,86.91
2022-08-21T12:12:21.892Z,90.33
2022-08-21T12:13:31.061Z,95.45
2022-08-21T12:14:39.270Z,97.9
2022-08-21T12:15:47.474Z,98.38
2022-08-21T12:16:56.627Z,100.34
2022-08-21T12:18:04.828Z,100.83
2022-08-21T12:19:13.020Z,101.56
2022-08-21T12:20:22.190Z,101.07
2022-08-21T12:21:31.357Z,99.12
2022-08-21T12:22:40.534Z,101.07
2022-08-21T12:23:49.709Z,99.85
2022-08-21T12:24:58.887Z,99.85
2022-08-21T12:26:08.054Z,97.41
2022-08-21T12:27:17.220Z,99.36
2022-08-21T12:28:26.392Z,98.38
2022-08-21T12:29:35.562Z,99.36
2022-08-21T12:30:44.729Z,101.31
2022-08-21T12:31:53.921Z,103.51
2022-08-21T12:33:03.079Z,101.8
2022-08-21T12:34:11.295Z,100.58
2022-08-21T12:35:20.448Z,99.85
2022-08-21T12:36:29.617Z,101.31
2022-08-21T12:37:38.794Z,101.07
2022-08-21T12:38:47.956Z,101.07
2022-08-21T12:39:57.142Z,100.34
2022-08-21T12:41:06.301Z,101.8
2022-08-21T12:42:15.480Z,100.58
2022-08-21T12:43:24.649Z,98.63
2022-08-21T12:44:33.830Z,97.41
2022-08-21T12:45:42.994Z,99.36
2022-08-21T12:46:52.160Z,98.38
2022-08-21T12:48:01.336Z,100.09
2022-08-21T12:49:09.531Z,100.83
2022-08-21T12:50:18.705Z,99.36
2022-08-21T12:51:27.873Z,98.63
2022-08-21T12:52:37.054Z,99.6
2022-08-21T12:54:55.397Z,97.9
2022-08-21T12:56:04.582Z,101.56
2022-08-21T12:57:13.749Z,99.6
2022-08-21T12:58:22.908Z,101.31
2022-08-21T12:59:32.090Z,101.8
2022-08-21T13:00:41.260Z,102.53
2022-08-21T13:01:50.429Z,101.8
2022-08-21T13:02:59.601Z,100.34
2022-08-21T13:05:16.966Z,99.36
2022-08-21T13:06:26.139Z,98.87
2022-08-21T13:07:35.300Z,101.31
2022-08-21T13:08:44.483Z,99.6
2022-08-21T13:09:53.651Z,99.36
2022-08-21T13:11:02.823Z,99.12
2022-08-21T13:12:11.994Z,100.09
2022-08-21T13:13:21.181Z,98.14
2022-08-21T13:14:30.343Z,99.85
2022-08-21T13:15:39.517Z,95.94
2022-08-21T13:16:48.688Z,98.38
2022-08-21T13:17:57.863Z,96.43
2022-08-21T13:19:06.041Z,98.63
2022-08-21T13:20:15.225Z,96.92
2022-08-21T13:21:24.405Z,95.21
2022-08-21T13:22:33.562Z,94.72
2022-08-21T13:23:42.755Z,94.48
2022-08-21T13:24:51.907Z,93.75
2022-08-21T13:26:01.085Z,93.5
2022-08-21T13:27:10.257Z,93.26
2022-08-21T13:28:19.431Z,95.45
2022-08-21T13:29:28.595Z,92.04
2022-08-21T13:30:37.771Z,91.55
2022-08-21T13:31:46.949Z,90.33
2022-08-21T13:32:56.116Z,89.59
2022-08-21T13:34:04.311Z,91.79
2022-08-21T13:35:13.477Z,90.82
2022-08-21T13:36:22.656Z,90.82
2022-08-21T13:37:31.820Z,103.27
2022-08-21T13:38:40.994Z,89.35
2022-08-21T13:39:50.174Z,90.82
2022-08-21T13:40:59.337Z,89.35
2022-08-21T13:42:08.523Z,90.82
2022-08-21T13:43:17.697Z,91.3
2022-08-21T13:44:26.865Z,92.77
2022-08-21T13:46:45.213Z,91.55
2022-08-21T13:47:54.395Z,92.52
2022-08-21T13:49:02.573Z,93.5
2022-08-21T13:50:11.748Z,94.72
2022-08-21T13:51:20.914Z,92.28
2022-08-21T13:52:30.094Z,95.7
2022-08-21T13:53:39.253Z,94.48
2022-08-21T13:54:48.437Z,96.92
2022-08-21T13:55:57.610Z,97.65
2022-08-21T13:57:06.793Z,97.65
2022-08-21T13:58:15.955Z,97.41
2022-08-21T13:59:25.133Z,97.41
2022-08-21T14:00:34.311Z,99.12
2022-08-21T14:01:43.477Z,97.9
2022-08-21T14:02:52.647Z,97.16
2022-08-21T14:04:00.837Z,98.87
2022-08-21T14:05:10.010Z,97.9
2022-08-21T14:06:19.180Z,98.63
2022-08-21T14:07:28.352Z,99.36
2022-08-21T14:08:37.525Z,98.87
2022-08-21T14:09:46.706Z,101.07
2022-08-21T14:10:55.868Z,100.58
2022-08-21T14:12:05.050Z,101.07
2022-08-21T14:14:23.389Z,102.53
2022-08-21T14:15:32.566Z,103.02
2022-08-21T14:16:41.738Z,103.51
2022-08-21T14:17:50.901Z,103.02
2022-08-21T14:18:59.093Z,102.78
2022-08-21T14:20:08.270Z,103.75
2022-08-21T14:21:17.436Z,100.58
2022-08-21T14:22:26.605Z,105.95
2022-08-21T14:23:35.785Z,100.34
2022-08-21T14:24:44.963Z,100.34
2022-08-21T14:25:54.135Z,96.43
2022-08-21T14:27:03.304Z,94.97
2022-08-21T14:28:12.484Z,95.21
2022-08-21T14:29:21.654Z,96.19
2022-08-21T14:30:30.812Z,93.5
2022-08-21T14:31:39.992Z,94.48
2022-08-21T14:32:49.189Z,96.19
2022-08-21T14:33:57.361Z,101.8
2022-08-21T14:35:06.519Z,95.21
2022-08-21T14:36:15.710Z,93.75
2022-08-21T14:37:24.875Z,92.04
2022-08-21T14:38:34.061Z,92.04
2022-08-21T14:40:52.391Z,88.62
2022-08-21T14:42:01.556Z,89.59
2022-08-21T14:43:10.729Z,88.37
2022-08-21T14:44:19.914Z,88.86
2022-08-21T14:45:29.085Z,87.4
2022-08-21T14:46:38.251Z,88.62
2022-08-21T14:47:47.426Z,89.35
2022-08-21T14:48:56.634Z,90.08
2022-08-21T14:50:04.787Z,90.33
2022-08-21T14:51:13.967Z,88.86
2022-08-21T14:52:23.134Z,91.79
2022-08-21T14:53:32.307Z,91.3
2022-08-21T14:55:50.655Z,92.04
2022-08-21T14:56:59.837Z,92.52
2022-08-21T14:58:09.007Z,93.5
2022-08-21T14:59:18.183Z,95.21
2022-08-21T15:00:27.349Z,95.94
2022-08-21T15:01:36.520Z,93.99
2022-08-21T15:02:45.689Z,95.45
2022-08-21T15:03:54.862Z,94.72
2022-08-21T15:05:03.052Z,94.97